sensor_id;sensor_type;location;lat;lon;timestamp;P1;durP1;ratioP1;P2;durP2;ratioP2
36315;SDS011;22343;50.820;2.666;2023-04-08T00:01:56;5.30;;;4.17;;
36315;SDS011;22343;50.820;2.666;2023-04-08T00:04:40;4.17;;;3.77;;
36315;SDS011;22343;50.820;2.666;2023-04-08T00:07:24;4.57;;;3.47;;
36315;SDS011;22343;50.820;2.666;2023-04-08T00:10:09;5.27;;;3.60;;
36315;SDS011;22343;50.820;2.666;2023-04-08T00:12:53;5.40;;;2.80;;
36315;SDS011;22343;50.820;2.666;2023-04-08T00:15:39;3.20;;;2.70;;
36315;SDS011;22343;50.820;2.666;2023-04-08T00:18:24;4.00;;;3.47;;
36315;SDS011;22343;50.820;2.666;2023-04-08T00:21:10;6.97;;;3.53;;
36315;SDS011;22343;50.820;2.666;2023-04-08T00:23:54;4.97;;;3.97;;
36315;SDS011;22343;50.820;2.666;2023-04-08T00:26:39;6.07;;;4.20;;
36315;SDS011;22343;50.820;2.666;2023-04-08T00:29:23;4.70;;;3.60;;
36315;SDS011;22343;50.820;2.666;2023-04-08T00:32:07;4.37;;;3.20;;
36315;SDS011;22343;50.820;2.666;2023-04-08T00:34:51;5.30;;;3.80;;
36315;SDS011;22343;50.820;2.666;2023-04-08T00:37:36;5.07;;;3.97;;
36315;SDS011;22343;50.820;2.666;2023-04-08T00:40:20;3.43;;;2.53;;
36315;SDS011;22343;50.820;2.666;2023-04-08T00:43:04;5.67;;;3.30;;
36315;SDS011;22343;50.820;2.666;2023-04-08T00:45:49;3.80;;;3.07;;
36315;SDS011;22343;50.820;2.666;2023-04-08T00:48:33;4.03;;;3.50;;
36315;SDS011;22343;50.820;2.666;2023-04-08T00:51:18;8.00;;;3.47;;
36315;SDS011;22343;50.820;2.666;2023-04-08T00:54:03;5.13;;;4.10;;
36315;SDS011;22343;50.820;2.666;2023-04-08T00:56:48;5.87;;;4.23;;
36315;SDS011;22343;50.820;2.666;2023-04-08T00:59:32;5.20;;;3.80;;
36315;SDS011;22343;50.820;2.666;2023-04-08T01:02:35;5.07;;;4.27;;
36315;SDS011;22343;50.820;2.666;2023-04-08T01:08:37;5.70;;;4.87;;
36315;SDS011;22343;50.820;2.666;2023-04-08T01:11:22;8.43;;;5.70;;
36315;SDS011;22343;50.820;2.666;2023-04-08T01:14:06;9.70;;;5.60;;
36315;SDS011;22343;50.820;2.666;2023-04-08T01:16:56;7.50;;;5.97;;
36315;SDS011;22343;50.820;2.666;2023-04-08T01:19:41;8.17;;;6.07;;
36315;SDS011;22343;50.820;2.666;2023-04-08T01:25:31;9.03;;;6.07;;
36315;SDS011;22343;50.820;2.666;2023-04-08T01:28:17;11.97;;;6.13;;
36315;SDS011;22343;50.820;2.666;2023-04-08T01:31:02;7.43;;;5.97;;
36315;SDS011;22343;50.820;2.666;2023-04-08T01:33:47;10.30;;;6.73;;
36315;SDS011;22343;50.820;2.666;2023-04-08T01:36:32;8.67;;;6.40;;
36315;SDS011;22343;50.820;2.666;2023-04-08T01:39:18;8.47;;;6.13;;
36315;SDS011;22343;50.820;2.666;2023-04-08T01:42:04;8.00;;;6.30;;
36315;SDS011;22343;50.820;2.666;2023-04-08T01:44:49;8.90;;;6.13;;
36315;SDS011;22343;50.820;2.666;2023-04-08T01:47:38;9.07;;;6.10;;
36315;SDS011;22343;50.820;2.666;2023-04-08T01:50:23;9.83;;;5.70;;
36315;SDS011;22343;50.820;2.666;2023-04-08T01:53:09;7.87;;;5.00;;
36315;SDS011;22343;50.820;2.666;2023-04-08T01:55:55;6.77;;;5.40;;
36315;SDS011;22343;50.820;2.666;2023-04-08T01:58:42;7.83;;;5.63;;
36315;SDS011;22343;50.820;2.666;2023-04-08T02:01:30;7.03;;;5.43;;
36315;SDS011;22343;50.820;2.666;2023-04-08T02:04:15;8.33;;;5.43;;
36315;SDS011;22343;50.820;2.666;2023-04-08T02:07:00;10.40;;;6.10;;
36315;SDS011;22343;50.820;2.666;2023-04-08T02:09:45;7.40;;;5.60;;
36315;SDS011;22343;50.820;2.666;2023-04-08T02:12:29;7.13;;;5.83;;
36315;SDS011;22343;50.820;2.666;2023-04-08T02:15:14;6.97;;;5.30;;
36315;SDS011;22343;50.820;2.666;2023-04-08T02:18:02;7.97;;;5.40;;
36315;SDS011;22343;50.820;2.666;2023-04-08T02:20:52;5.30;;;4.67;;
36315;SDS011;22343;50.820;2.666;2023-04-08T02:23:41;7.17;;;5.20;;
36315;SDS011;22343;50.820;2.666;2023-04-08T02:26:29;6.10;;;5.37;;
36315;SDS011;22343;50.820;2.666;2023-04-08T02:29:17;5.67;;;5.03;;
36315;SDS011;22343;50.820;2.666;2023-04-08T02:32:02;6.57;;;5.40;;
36315;SDS011;22343;50.820;2.666;2023-04-08T02:34:48;7.67;;;6.07;;
36315;SDS011;22343;50.820;2.666;2023-04-08T02:37:33;9.27;;;6.13;;
36315;SDS011;22343;50.820;2.666;2023-04-08T02:40:35;10.17;;;6.90;;
36315;SDS011;22343;50.820;2.666;2023-04-08T02:43:20;7.67;;;5.97;;
36315;SDS011;22343;50.820;2.666;2023-04-08T02:46:05;9.87;;;6.67;;
36315;SDS011;22343;50.820;2.666;2023-04-08T02:48:50;9.70;;;6.50;;
36315;SDS011;22343;50.820;2.666;2023-04-08T02:51:35;8.00;;;6.67;;
36315;SDS011;22343;50.820;2.666;2023-04-08T02:54:19;11.03;;;7.40;;
36315;SDS011;22343;50.820;2.666;2023-04-08T02:57:03;8.60;;;6.67;;
36315;SDS011;22343;50.820;2.666;2023-04-08T02:59:47;9.23;;;7.07;;
36315;SDS011;22343;50.820;2.666;2023-04-08T03:02:32;9.10;;;6.80;;
36315;SDS011;22343;50.820;2.666;2023-04-08T03:05:16;8.57;;;6.53;;
36315;SDS011;22343;50.820;2.666;2023-04-08T03:08:00;9.50;;;7.13;;
36315;SDS011;22343;50.820;2.666;2023-04-08T03:10:45;9.03;;;6.87;;
36315;SDS011;22343;50.820;2.666;2023-04-08T03:13:29;10.40;;;7.70;;
36315;SDS011;22343;50.820;2.666;2023-04-08T03:16:14;9.23;;;7.10;;
36315;SDS011;22343;50.820;2.666;2023-04-08T03:18:58;8.70;;;7.03;;
36315;SDS011;22343;50.820;2.666;2023-04-08T03:21:43;9.13;;;6.73;;
36315;SDS011;22343;50.820;2.666;2023-04-08T03:24:28;11.10;;;7.63;;
36315;SDS011;22343;50.820;2.666;2023-04-08T03:27:12;11.47;;;7.70;;
36315;SDS011;22343;50.820;2.666;2023-04-08T03:29:56;12.03;;;8.30;;
36315;SDS011;22343;50.820;2.666;2023-04-08T03:32:41;12.10;;;8.73;;
36315;SDS011;22343;50.820;2.666;2023-04-08T03:35:26;11.10;;;7.97;;
36315;SDS011;22343;50.820;2.666;2023-04-08T03:38:10;11.97;;;8.60;;
36315;SDS011;22343;50.820;2.666;2023-04-08T03:40:54;12.60;;;8.63;;
36315;SDS011;22343;50.820;2.666;2023-04-08T03:43:39;15.37;;;9.23;;
36315;SDS011;22343;50.820;2.666;2023-04-08T03:46:23;12.03;;;8.57;;
36315;SDS011;22343;50.820;2.666;2023-04-08T03:49:08;11.57;;;8.47;;
36315;SDS011;22343;50.820;2.666;2023-04-08T03:51:52;12.00;;;8.73;;
36315;SDS011;22343;50.820;2.666;2023-04-08T03:54:36;13.30;;;8.87;;
36315;SDS011;22343;50.820;2.666;2023-04-08T03:57:20;14.27;;;9.33;;
36315;SDS011;22343;50.820;2.666;2023-04-08T04:00:05;13.60;;;8.63;;
36315;SDS011;22343;50.820;2.666;2023-04-08T04:02:50;12.43;;;8.83;;
36315;SDS011;22343;50.820;2.666;2023-04-08T04:05:34;12.53;;;8.53;;
36315;SDS011;22343;50.820;2.666;2023-04-08T04:08:20;14.10;;;9.00;;
36315;SDS011;22343;50.820;2.666;2023-04-08T04:11:04;12.63;;;8.97;;
36315;SDS011;22343;50.820;2.666;2023-04-08T04:13:48;11.30;;;8.33;;
36315;SDS011;22343;50.820;2.666;2023-04-08T04:16:32;11.17;;;8.60;;
36315;SDS011;22343;50.820;2.666;2023-04-08T04:19:17;15.90;;;9.00;;
36315;SDS011;22343;50.820;2.666;2023-04-08T04:22:01;12.17;;;8.50;;
36315;SDS011;22343;50.820;2.666;2023-04-08T04:24:46;12.63;;;8.63;;
36315;SDS011;22343;50.820;2.666;2023-04-08T04:27:33;13.30;;;9.20;;
36315;SDS011;22343;50.820;2.666;2023-04-08T04:30:19;14.67;;;9.50;;
36315;SDS011;22343;50.820;2.666;2023-04-08T04:33:04;14.33;;;9.50;;
36315;SDS011;22343;50.820;2.666;2023-04-08T04:35:48;14.23;;;9.23;;
36315;SDS011;22343;50.820;2.666;2023-04-08T04:38:32;13.93;;;9.43;;
36315;SDS011;22343;50.820;2.666;2023-04-08T04:41:17;12.90;;;9.07;;
36315;SDS011;22343;50.820;2.666;2023-04-08T04:44:01;12.37;;;9.07;;
36315;SDS011;22343;50.820;2.666;2023-04-08T04:46:45;13.47;;;9.33;;
36315;SDS011;22343;50.820;2.666;2023-04-08T04:49:30;14.83;;;10.13;;
36315;SDS011;22343;50.820;2.666;2023-04-08T04:52:15;12.70;;;9.13;;
36315;SDS011;22343;50.820;2.666;2023-04-08T04:54:59;11.27;;;9.00;;
36315;SDS011;22343;50.820;2.666;2023-04-08T04:57:44;14.53;;;9.27;;
36315;SDS011;22343;50.820;2.666;2023-04-08T05:00:28;14.23;;;9.33;;
36315;SDS011;22343;50.820;2.666;2023-04-08T05:03:12;12.80;;;9.37;;
36315;SDS011;22343;50.820;2.666;2023-04-08T05:05:57;14.33;;;9.33;;
36315;SDS011;22343;50.820;2.666;2023-04-08T05:08:41;13.13;;;9.83;;
36315;SDS011;22343;50.820;2.666;2023-04-08T05:11:25;12.77;;;9.67;;
36315;SDS011;22343;50.820;2.666;2023-04-08T05:14:10;14.33;;;10.20;;
36315;SDS011;22343;50.820;2.666;2023-04-08T05:16:54;14.67;;;10.20;;
36315;SDS011;22343;50.820;2.666;2023-04-08T05:19:39;14.57;;;9.77;;
36315;SDS011;22343;50.820;2.666;2023-04-08T05:22:23;14.93;;;9.80;;
36315;SDS011;22343;50.820;2.666;2023-04-08T05:25:08;14.67;;;10.03;;
36315;SDS011;22343;50.820;2.666;2023-04-08T05:27:53;16.03;;;10.53;;
36315;SDS011;22343;50.820;2.666;2023-04-08T05:30:37;15.30;;;10.00;;
36315;SDS011;22343;50.820;2.666;2023-04-08T05:33:22;15.87;;;10.37;;
36315;SDS011;22343;50.820;2.666;2023-04-08T05:36:06;19.30;;;10.80;;
36315;SDS011;22343;50.820;2.666;2023-04-08T05:38:50;15.67;;;10.20;;
36315;SDS011;22343;50.820;2.666;2023-04-08T05:41:35;13.90;;;10.30;;
36315;SDS011;22343;50.820;2.666;2023-04-08T05:44:19;14.43;;;10.87;;
36315;SDS011;22343;50.820;2.666;2023-04-08T05:47:03;18.30;;;10.93;;
36315;SDS011;22343;50.820;2.666;2023-04-08T05:49:48;18.03;;;11.03;;
36315;SDS011;22343;50.820;2.666;2023-04-08T05:52:32;14.53;;;10.50;;
36315;SDS011;22343;50.820;2.666;2023-04-08T05:55:16;14.33;;;10.57;;
36315;SDS011;22343;50.820;2.666;2023-04-08T05:58:01;14.00;;;9.80;;
36315;SDS011;22343;50.820;2.666;2023-04-08T06:00:45;17.50;;;10.23;;
36315;SDS011;22343;50.820;2.666;2023-04-08T06:03:30;15.43;;;10.30;;
36315;SDS011;22343;50.820;2.666;2023-04-08T06:06:14;15.07;;;9.93;;
36315;SDS011;22343;50.820;2.666;2023-04-08T06:08:59;14.20;;;10.43;;
36315;SDS011;22343;50.820;2.666;2023-04-08T06:11:43;14.07;;;10.40;;
36315;SDS011;22343;50.820;2.666;2023-04-08T06:14:30;15.87;;;9.43;;
36315;SDS011;22343;50.820;2.666;2023-04-08T06:17:14;15.47;;;10.57;;
36315;SDS011;22343;50.820;2.666;2023-04-08T06:20:00;15.30;;;10.83;;
36315;SDS011;22343;50.820;2.666;2023-04-08T06:22:44;16.00;;;11.60;;
36315;SDS011;22343;50.820;2.666;2023-04-08T06:25:29;16.33;;;10.93;;
36315;SDS011;22343;50.820;2.666;2023-04-08T06:28:13;14.47;;;10.40;;
36315;SDS011;22343;50.820;2.666;2023-04-08T06:30:58;14.47;;;10.43;;
36315;SDS011;22343;50.820;2.666;2023-04-08T06:33:43;16.47;;;10.03;;
36315;SDS011;22343;50.820;2.666;2023-04-08T06:36:27;15.73;;;9.87;;
36315;SDS011;22343;50.820;2.666;2023-04-08T06:39:11;13.63;;;10.57;;
36315;SDS011;22343;50.820;2.666;2023-04-08T06:41:55;14.30;;;9.50;;
36315;SDS011;22343;50.820;2.666;2023-04-08T06:44:41;15.33;;;10.50;;
36315;SDS011;22343;50.820;2.666;2023-04-08T06:47:25;14.53;;;10.37;;
36315;SDS011;22343;50.820;2.666;2023-04-08T06:50:09;15.07;;;10.80;;
36315;SDS011;22343;50.820;2.666;2023-04-08T06:52:54;12.00;;;9.87;;
36315;SDS011;22343;50.820;2.666;2023-04-08T06:55:38;16.20;;;10.27;;
36315;SDS011;22343;50.820;2.666;2023-04-08T06:58:23;12.43;;;9.87;;
36315;SDS011;22343;50.820;2.666;2023-04-08T07:01:07;13.53;;;10.10;;
36315;SDS011;22343;50.820;2.666;2023-04-08T07:03:51;13.60;;;10.27;;
36315;SDS011;22343;50.820;2.666;2023-04-08T07:06:36;14.77;;;10.23;;
36315;SDS011;22343;50.820;2.666;2023-04-08T07:09:20;14.53;;;10.30;;
36315;SDS011;22343;50.820;2.666;2023-04-08T07:12:05;12.17;;;9.73;;
36315;SDS011;22343;50.820;2.666;2023-04-08T07:14:49;14.50;;;10.60;;
36315;SDS011;22343;50.820;2.666;2023-04-08T07:17:34;16.20;;;10.23;;
36315;SDS011;22343;50.820;2.666;2023-04-08T07:20:18;15.33;;;9.80;;
36315;SDS011;22343;50.820;2.666;2023-04-08T07:23:02;14.40;;;10.53;;
36315;SDS011;22343;50.820;2.666;2023-04-08T07:25:47;15.47;;;10.77;;
36315;SDS011;22343;50.820;2.666;2023-04-08T07:28:32;13.53;;;10.43;;
36315;SDS011;22343;50.820;2.666;2023-04-08T07:31:16;14.17;;;10.67;;
36315;SDS011;22343;50.820;2.666;2023-04-08T07:34:01;14.53;;;10.27;;
36315;SDS011;22343;50.820;2.666;2023-04-08T07:36:45;13.93;;;10.90;;
36315;SDS011;22343;50.820;2.666;2023-04-08T07:39:30;15.60;;;11.63;;
36315;SDS011;22343;50.820;2.666;2023-04-08T07:42:14;15.73;;;10.73;;
36315;SDS011;22343;50.820;2.666;2023-04-08T07:44:58;13.30;;;10.57;;
36315;SDS011;22343;50.820;2.666;2023-04-08T07:47:43;18.03;;;10.87;;
36315;SDS011;22343;50.820;2.666;2023-04-08T07:50:27;13.47;;;10.43;;
36315;SDS011;22343;50.820;2.666;2023-04-08T07:53:11;15.20;;;10.10;;
36315;SDS011;22343;50.820;2.666;2023-04-08T07:55:56;13.43;;;10.20;;
36315;SDS011;22343;50.820;2.666;2023-04-08T07:58:41;12.90;;;9.70;;
36315;SDS011;22343;50.820;2.666;2023-04-08T08:01:25;11.73;;;8.97;;
36315;SDS011;22343;50.820;2.666;2023-04-08T08:04:12;12.60;;;10.00;;
36315;SDS011;22343;50.820;2.666;2023-04-08T08:06:57;16.20;;;10.47;;
36315;SDS011;22343;50.820;2.666;2023-04-08T08:09:41;11.90;;;10.43;;
36315;SDS011;22343;50.820;2.666;2023-04-08T08:12:25;14.37;;;10.53;;
36315;SDS011;22343;50.820;2.666;2023-04-08T08:15:10;15.07;;;11.17;;
36315;SDS011;22343;50.820;2.666;2023-04-08T08:17:54;15.17;;;10.97;;
36315;SDS011;22343;50.820;2.666;2023-04-08T08:20:39;13.87;;;10.10;;
36315;SDS011;22343;50.820;2.666;2023-04-08T08:23:23;10.87;;;8.97;;
36315;SDS011;22343;50.820;2.666;2023-04-08T08:26:08;13.73;;;9.20;;
36315;SDS011;22343;50.820;2.666;2023-04-08T08:28:53;12.53;;;9.30;;
36315;SDS011;22343;50.820;2.666;2023-04-08T08:31:38;12.57;;;9.47;;
36315;SDS011;22343;50.820;2.666;2023-04-08T08:34:22;13.63;;;10.83;;
36315;SDS011;22343;50.820;2.666;2023-04-08T08:37:06;15.47;;;10.67;;
36315;SDS011;22343;50.820;2.666;2023-04-08T08:39:51;14.57;;;10.90;;
36315;SDS011;22343;50.820;2.666;2023-04-08T08:42:35;17.47;;;10.97;;
36315;SDS011;22343;50.820;2.666;2023-04-08T08:45:19;12.83;;;10.07;;
36315;SDS011;22343;50.820;2.666;2023-04-08T08:48:04;12.30;;;9.20;;
36315;SDS011;22343;50.820;2.666;2023-04-08T08:50:50;12.27;;;8.80;;
36315;SDS011;22343;50.820;2.666;2023-04-08T08:53:35;12.93;;;8.80;;
36315;SDS011;22343;50.820;2.666;2023-04-08T08:56:20;12.83;;;8.20;;
36315;SDS011;22343;50.820;2.666;2023-04-08T08:59:05;9.17;;;8.10;;
36315;SDS011;22343;50.820;2.666;2023-04-08T09:01:49;9.67;;;8.23;;
36315;SDS011;22343;50.820;2.666;2023-04-08T09:04:34;11.03;;;8.33;;
36315;SDS011;22343;50.820;2.666;2023-04-08T09:07:19;10.17;;;8.17;;
36315;SDS011;22343;50.820;2.666;2023-04-08T09:10:09;10.33;;;7.87;;
36315;SDS011;22343;50.820;2.666;2023-04-08T09:12:54;9.10;;;8.07;;
36315;SDS011;22343;50.820;2.666;2023-04-08T09:18:46;8.77;;;7.63;;
36315;SDS011;22343;50.820;2.666;2023-04-08T09:21:32;8.20;;;6.87;;
36315;SDS011;22343;50.820;2.666;2023-04-08T09:24:28;6.50;;;5.50;;
36315;SDS011;22343;50.820;2.666;2023-04-08T09:27:13;9.27;;;7.13;;
36315;SDS011;22343;50.820;2.666;2023-04-08T09:30:11;10.80;;;7.47;;
36315;SDS011;22343;50.820;2.666;2023-04-08T09:32:57;7.63;;;6.87;;
36315;SDS011;22343;50.820;2.666;2023-04-08T09:35:41;9.53;;;7.03;;
36315;SDS011;22343;50.820;2.666;2023-04-08T09:38:29;9.40;;;7.07;;
36315;SDS011;22343;50.820;2.666;2023-04-08T09:41:14;9.73;;;7.90;;
36315;SDS011;22343;50.820;2.666;2023-04-08T09:44:00;9.63;;;7.20;;
36315;SDS011;22343;50.820;2.666;2023-04-08T09:49:54;8.47;;;7.40;;
36315;SDS011;22343;50.820;2.666;2023-04-08T09:52:43;8.00;;;6.83;;
36315;SDS011;22343;50.820;2.666;2023-04-08T09:55:29;8.13;;;7.33;;
36315;SDS011;22343;50.820;2.666;2023-04-08T09:58:20;8.60;;;7.27;;
36315;SDS011;22343;50.820;2.666;2023-04-08T10:01:09;8.30;;;7.30;;
36315;SDS011;22343;50.820;2.666;2023-04-08T10:03:57;8.37;;;7.10;;
36315;SDS011;22343;50.820;2.666;2023-04-08T10:06:43;8.40;;;6.70;;
36315;SDS011;22343;50.820;2.666;2023-04-08T10:09:29;6.83;;;6.10;;
36315;SDS011;22343;50.820;2.666;2023-04-08T10:12:15;7.73;;;6.67;;
36315;SDS011;22343;50.820;2.666;2023-04-08T10:20:52;7.43;;;6.63;;
36315;SDS011;22343;50.820;2.666;2023-04-08T10:24:10;8.00;;;6.87;;
36315;SDS011;22343;50.820;2.666;2023-04-08T10:26:50;10.97;;;7.90;;
36315;SDS011;22343;50.820;2.666;2023-04-08T10:29:34;9.73;;;7.50;;
36315;SDS011;22343;50.820;2.666;2023-04-08T10:32:26;9.77;;;7.60;;
36315;SDS011;22343;50.820;2.666;2023-04-08T10:35:12;8.90;;;7.17;;
36315;SDS011;22343;50.820;2.666;2023-04-08T10:37:57;8.27;;;7.37;;
36315;SDS011;22343;50.820;2.666;2023-04-08T10:40:42;9.40;;;7.90;;
36315;SDS011;22343;50.820;2.666;2023-04-08T10:43:31;9.43;;;7.17;;
36315;SDS011;22343;50.820;2.666;2023-04-08T10:46:18;9.57;;;8.07;;
36315;SDS011;22343;50.820;2.666;2023-04-08T10:49:03;8.23;;;7.27;;
36315;SDS011;22343;50.820;2.666;2023-04-08T10:51:48;8.70;;;6.90;;
36315;SDS011;22343;50.820;2.666;2023-04-08T10:54:32;8.70;;;7.30;;
36315;SDS011;22343;50.820;2.666;2023-04-08T10:57:22;7.47;;;6.40;;
36315;SDS011;22343;50.820;2.666;2023-04-08T11:00:15;9.70;;;7.33;;
36315;SDS011;22343;50.820;2.666;2023-04-08T11:03:08;9.33;;;7.90;;
36315;SDS011;22343;50.820;2.666;2023-04-08T11:05:53;8.03;;;6.70;;
36315;SDS011;22343;50.820;2.666;2023-04-08T11:08:40;7.30;;;6.20;;
36315;SDS011;22343;50.820;2.666;2023-04-08T11:11:25;7.80;;;7.00;;
36315;SDS011;22343;50.820;2.666;2023-04-08T11:14:12;8.63;;;6.83;;
36315;SDS011;22343;50.820;2.666;2023-04-08T11:16:56;7.07;;;6.20;;
36315;SDS011;22343;50.820;2.666;2023-04-08T11:19:43;8.87;;;6.17;;
36315;SDS011;22343;50.820;2.666;2023-04-08T11:22:28;9.13;;;6.83;;
36315;SDS011;22343;50.820;2.666;2023-04-08T11:25:13;9.33;;;6.20;;
36315;SDS011;22343;50.820;2.666;2023-04-08T11:27:58;9.70;;;6.73;;
36315;SDS011;22343;50.820;2.666;2023-04-08T11:30:43;8.27;;;5.87;;
36315;SDS011;22343;50.820;2.666;2023-04-08T11:33:29;8.57;;;6.00;;
36315;SDS011;22343;50.820;2.666;2023-04-08T11:36:16;7.57;;;6.50;;
36315;SDS011;22343;50.820;2.666;2023-04-08T11:39:05;9.53;;;6.03;;
36315;SDS011;22343;50.820;2.666;2023-04-08T11:41:50;9.93;;;6.90;;
36315;SDS011;22343;50.820;2.666;2023-04-08T11:44:34;7.73;;;6.37;;
36315;SDS011;22343;50.820;2.666;2023-04-08T11:47:18;8.63;;;6.93;;
36315;SDS011;22343;50.820;2.666;2023-04-08T11:50:03;9.30;;;6.20;;
36315;SDS011;22343;50.820;2.666;2023-04-08T11:52:48;9.10;;;6.50;;
36315;SDS011;22343;50.820;2.666;2023-04-08T11:55:33;8.73;;;6.50;;
36315;SDS011;22343;50.820;2.666;2023-04-08T11:58:18;9.70;;;7.17;;
36315;SDS011;22343;50.820;2.666;2023-04-08T12:01:03;8.77;;;6.90;;
36315;SDS011;22343;50.820;2.666;2023-04-08T12:06:38;10.03;;;7.50;;
36315;SDS011;22343;50.820;2.666;2023-04-08T12:09:26;9.00;;;6.13;;
36315;SDS011;22343;50.820;2.666;2023-04-08T12:12:11;10.60;;;6.80;;
36315;SDS011;22343;50.820;2.666;2023-04-08T12:14:55;8.53;;;6.53;;
36315;SDS011;22343;50.820;2.666;2023-04-08T12:17:39;7.67;;;6.30;;
36315;SDS011;22343;50.820;2.666;2023-04-08T12:20:24;8.90;;;6.33;;
36315;SDS011;22343;50.820;2.666;2023-04-08T12:23:08;11.00;;;7.40;;
36315;SDS011;22343;50.820;2.666;2023-04-08T12:25:52;8.77;;;7.10;;
36315;SDS011;22343;50.820;2.666;2023-04-08T12:28:37;8.97;;;6.70;;
36315;SDS011;22343;50.820;2.666;2023-04-08T12:31:21;9.30;;;6.77;;
36315;SDS011;22343;50.820;2.666;2023-04-08T12:34:06;11.07;;;7.23;;
36315;SDS011;22343;50.820;2.666;2023-04-08T12:36:51;7.23;;;5.97;;
36315;SDS011;22343;50.820;2.666;2023-04-08T12:39:35;9.07;;;6.90;;
36315;SDS011;22343;50.820;2.666;2023-04-08T12:42:19;9.00;;;6.73;;
36315;SDS011;22343;50.820;2.666;2023-04-08T12:45:03;10.23;;;6.60;;
36315;SDS011;22343;50.820;2.666;2023-04-08T12:47:48;9.80;;;6.60;;
36315;SDS011;22343;50.820;2.666;2023-04-08T12:50:32;9.47;;;6.37;;
36315;SDS011;22343;50.820;2.666;2023-04-08T12:53:17;8.73;;;7.23;;
36315;SDS011;22343;50.820;2.666;2023-04-08T12:56:01;9.63;;;7.13;;
36315;SDS011;22343;50.820;2.666;2023-04-08T12:58:45;7.57;;;6.03;;
36315;SDS011;22343;50.820;2.666;2023-04-08T13:01:30;10.13;;;6.73;;
36315;SDS011;22343;50.820;2.666;2023-04-08T13:04:14;10.00;;;7.03;;
36315;SDS011;22343;50.820;2.666;2023-04-08T13:06:59;8.90;;;6.97;;
36315;SDS011;22343;50.820;2.666;2023-04-08T13:09:44;7.70;;;6.80;;
36315;SDS011;22343;50.820;2.666;2023-04-08T13:12:29;10.33;;;6.87;;
36315;SDS011;22343;50.820;2.666;2023-04-08T13:15:15;11.33;;;7.73;;
36315;SDS011;22343;50.820;2.666;2023-04-08T13:17:59;10.57;;;7.07;;
36315;SDS011;22343;50.820;2.666;2023-04-08T13:20:44;10.43;;;7.67;;
36315;SDS011;22343;50.820;2.666;2023-04-08T13:23:29;10.63;;;7.17;;
36315;SDS011;22343;50.820;2.666;2023-04-08T13:26:13;8.50;;;6.97;;
36315;SDS011;22343;50.820;2.666;2023-04-08T13:28:57;9.93;;;7.07;;
36315;SDS011;22343;50.820;2.666;2023-04-08T13:31:41;10.20;;;6.93;;
36315;SDS011;22343;50.820;2.666;2023-04-08T13:34:26;9.07;;;7.33;;
36315;SDS011;22343;50.820;2.666;2023-04-08T13:37:10;9.17;;;6.90;;
36315;SDS011;22343;50.820;2.666;2023-04-08T13:39:55;8.60;;;6.90;;
36315;SDS011;22343;50.820;2.666;2023-04-08T13:42:40;10.23;;;7.23;;
36315;SDS011;22343;50.820;2.666;2023-04-08T13:45:24;9.90;;;7.23;;
36315;SDS011;22343;50.820;2.666;2023-04-08T13:48:09;11.23;;;6.90;;
36315;SDS011;22343;50.820;2.666;2023-04-08T13:50:53;8.10;;;6.97;;
36315;SDS011;22343;50.820;2.666;2023-04-08T13:53:37;10.33;;;7.97;;
36315;SDS011;22343;50.820;2.666;2023-04-08T13:56:22;8.53;;;7.60;;
36315;SDS011;22343;50.820;2.666;2023-04-08T13:59:06;10.13;;;7.40;;
36315;SDS011;22343;50.820;2.666;2023-04-08T14:01:50;10.13;;;7.90;;
36315;SDS011;22343;50.820;2.666;2023-04-08T14:04:36;10.77;;;7.80;;
36315;SDS011;22343;50.820;2.666;2023-04-08T14:07:21;8.67;;;7.07;;
36315;SDS011;22343;50.820;2.666;2023-04-08T14:10:05;10.93;;;8.10;;
36315;SDS011;22343;50.820;2.666;2023-04-08T14:12:50;10.13;;;8.30;;
36315;SDS011;22343;50.820;2.666;2023-04-08T14:15:35;11.60;;;7.53;;
36315;SDS011;22343;50.820;2.666;2023-04-08T14:18:19;10.87;;;7.30;;
36315;SDS011;22343;50.820;2.666;2023-04-08T14:21:03;8.30;;;6.23;;
36315;SDS011;22343;50.820;2.666;2023-04-08T14:23:48;9.43;;;7.43;;
36315;SDS011;22343;50.820;2.666;2023-04-08T14:26:32;8.13;;;6.57;;
36315;SDS011;22343;50.820;2.666;2023-04-08T14:29:19;9.70;;;7.07;;
36315;SDS011;22343;50.820;2.666;2023-04-08T14:32:03;9.13;;;6.90;;
36315;SDS011;22343;50.820;2.666;2023-04-08T14:34:48;10.63;;;7.43;;
36315;SDS011;22343;50.820;2.666;2023-04-08T14:37:32;11.17;;;8.03;;
36315;SDS011;22343;50.820;2.666;2023-04-08T14:40:17;10.23;;;7.27;;
36315;SDS011;22343;50.820;2.666;2023-04-08T14:43:01;9.67;;;8.13;;
36315;SDS011;22343;50.820;2.666;2023-04-08T14:45:45;12.60;;;8.53;;
36315;SDS011;22343;50.820;2.666;2023-04-08T14:48:29;10.43;;;7.90;;
36315;SDS011;22343;50.820;2.666;2023-04-08T14:51:14;12.10;;;9.07;;
36315;SDS011;22343;50.820;2.666;2023-04-08T14:53:58;10.73;;;8.37;;
36315;SDS011;22343;50.820;2.666;2023-04-08T14:56:42;10.33;;;7.60;;
36315;SDS011;22343;50.820;2.666;2023-04-08T14:59:27;9.90;;;8.20;;
36315;SDS011;22343;50.820;2.666;2023-04-08T15:02:11;12.00;;;9.00;;
36315;SDS011;22343;50.820;2.666;2023-04-08T15:04:56;11.83;;;8.43;;
36315;SDS011;22343;50.820;2.666;2023-04-08T15:07:40;10.97;;;8.60;;
36315;SDS011;22343;50.820;2.666;2023-04-08T15:10:26;13.37;;;9.17;;
36315;SDS011;22343;50.820;2.666;2023-04-08T15:13:10;11.63;;;8.73;;
36315;SDS011;22343;50.820;2.666;2023-04-08T15:15:55;11.20;;;9.00;;
36315;SDS011;22343;50.820;2.666;2023-04-08T15:18:39;13.37;;;9.60;;
36315;SDS011;22343;50.820;2.666;2023-04-08T15:21:24;13.57;;;9.17;;
36315;SDS011;22343;50.820;2.666;2023-04-08T15:24:09;13.63;;;9.30;;
36315;SDS011;22343;50.820;2.666;2023-04-08T15:26:54;12.80;;;9.20;;
36315;SDS011;22343;50.820;2.666;2023-04-08T15:29:39;14.03;;;9.40;;
36315;SDS011;22343;50.820;2.666;2023-04-08T15:32:24;14.00;;;10.07;;
36315;SDS011;22343;50.820;2.666;2023-04-08T15:35:08;15.17;;;10.73;;
36315;SDS011;22343;50.820;2.666;2023-04-08T15:37:53;14.60;;;10.90;;
36315;SDS011;22343;50.820;2.666;2023-04-08T15:40:38;13.97;;;10.43;;
36315;SDS011;22343;50.820;2.666;2023-04-08T15:43:23;14.00;;;10.20;;
36315;SDS011;22343;50.820;2.666;2023-04-08T15:46:08;13.60;;;10.53;;
36315;SDS011;22343;50.820;2.666;2023-04-08T15:48:52;13.77;;;10.30;;
36315;SDS011;22343;50.820;2.666;2023-04-08T15:51:37;14.07;;;10.10;;
36315;SDS011;22343;50.820;2.666;2023-04-08T15:54:21;13.13;;;9.87;;
36315;SDS011;22343;50.820;2.666;2023-04-08T15:57:05;13.97;;;11.13;;
36315;SDS011;22343;50.820;2.666;2023-04-08T15:59:50;16.77;;;10.90;;
36315;SDS011;22343;50.820;2.666;2023-04-08T16:02:34;13.90;;;10.53;;
36315;SDS011;22343;50.820;2.666;2023-04-08T16:05:18;14.87;;;10.53;;
36315;SDS011;22343;50.820;2.666;2023-04-08T16:08:03;14.67;;;10.93;;
36315;SDS011;22343;50.820;2.666;2023-04-08T16:10:47;13.60;;;10.20;;
36315;SDS011;22343;50.820;2.666;2023-04-08T16:13:31;14.10;;;10.47;;
36315;SDS011;22343;50.820;2.666;2023-04-08T16:16:17;13.77;;;10.20;;
36315;SDS011;22343;50.820;2.666;2023-04-08T16:19:02;17.27;;;11.30;;
36315;SDS011;22343;50.820;2.666;2023-04-08T16:21:47;15.80;;;11.73;;
36315;SDS011;22343;50.820;2.666;2023-04-08T16:24:33;15.77;;;11.53;;
36315;SDS011;22343;50.820;2.666;2023-04-08T16:27:19;16.33;;;10.47;;
36315;SDS011;22343;50.820;2.666;2023-04-08T16:30:03;18.37;;;12.10;;
36315;SDS011;22343;50.820;2.666;2023-04-08T16:32:49;19.27;;;12.53;;
36315;SDS011;22343;50.820;2.666;2023-04-08T16:35:33;18.90;;;12.10;;
36315;SDS011;22343;50.820;2.666;2023-04-08T16:38:18;18.20;;;12.80;;
36315;SDS011;22343;50.820;2.666;2023-04-08T16:41:02;16.70;;;12.20;;
36315;SDS011;22343;50.820;2.666;2023-04-08T16:43:49;17.87;;;12.57;;